createdAt,value
2023-02-18T00:02:12.680Z,73.34
2023-02-18T00:04:46.071Z,73.66
2023-02-18T00:07:17.678Z,73.76
2023-02-18T00:09:56.155Z,73.89
2023-02-18T00:12:23.236Z,73.47
2023-02-18T00:14:53.866Z,73.49
2023-02-18T00:17:28.069Z,74.13
2023-02-18T00:20:01.316Z,74.23
2023-02-18T00:22:33.391Z,73.87
2023-02-18T00:25:06.799Z,74.29
2023-02-18T00:27:37.260Z,74.46
2023-02-18T00:30:09.125Z,74.33
2023-02-18T00:32:39.763Z,74.41
2023-02-18T00:35:11.018Z,74.27
2023-02-18T00:37:43.106Z,74.90
2023-02-18T00:40:16.053Z,75.22
2023-02-18T00:42:49.390Z,75.34
2023-02-18T00:45:22.559Z,75.38
2023-02-18T00:47:53.219Z,75.69
2023-02-18T00:50:25.440Z,76.03
2023-02-18T00:52:58.305Z,75.78
2023-02-18T00:55:29.428Z,75.94
2023-02-18T00:58:00.107Z,75.97
2023-02-18T01:00:30.877Z,75.78
2023-02-18T01:03:05.666Z,75.96
2023-02-18T01:05:37.368Z,76.46
2023-02-18T01:08:09.682Z,76.14
2023-02-18T01:10:42.687Z,76.05
2023-02-18T01:13:14.557Z,76.32
2023-02-18T01:15:47.099Z,76.07
2023-02-18T01:18:19.161Z,76.39
2023-02-18T01:20:50.206Z,76.29
2023-02-18T01:23:21.630Z,76.39
2023-02-18T01:25:54.538Z,76.57
2023-02-18T01:28:26.185Z,76.49
2023-02-18T01:30:56.987Z,76.41
2023-02-18T01:33:29.488Z,76.15
2023-02-18T01:36:00.057Z,76.18
2023-02-18T01:38:31.439Z,76.06
2023-02-18T01:41:03.549Z,76.21
2023-02-18T01:43:34.908Z,76.15
2023-02-18T01:46:20.970Z,75.73
2023-02-18T01:49:01.410Z,76.02
2023-02-18T01:51:35.341Z,76.11
2023-02-18T01:54:14.851Z,76.10
2023-02-18T01:56:51.152Z,76.02
2023-02-18T01:59:30.935Z,76.32
2023-02-18T02:02:02.281Z,76.41
2023-02-18T02:04:33.403Z,76.49
2023-02-18T02:07:05.150Z,76.31
2023-02-18T02:09:37.344Z,76.26
2023-02-18T02:12:19.594Z,75.90
2023-02-18T02:15:02.323Z,76.23
2023-02-18T02:17:54.393Z,76.36
2023-02-18T02:20:53.085Z,76.24
2023-02-18T02:23:46.657Z,76.07
2023-02-18T02:26:44.875Z,76.75
2023-02-18T02:29:37.376Z,76.85
2023-02-18T02:32:43.961Z,76.81
2023-02-18T02:35:17.684Z,76.72
2023-02-18T02:38:07.211Z,76.55
2023-02-18T02:40:46.380Z,76.92
2023-02-18T02:43:44.375Z,76.52
2023-02-18T02:46:26.100Z,76.29
2023-02-18T02:49:08.770Z,76.27
2023-02-18T02:52:03.008Z,76.63
2023-02-18T02:54:34.052Z,76.24
2023-02-18T02:57:16.118Z,76.17
2023-02-18T02:59:49.782Z,76.43
2023-02-18T03:02:29.032Z,76.61
2023-02-18T03:05:17.906Z,76.65
2023-02-18T03:08:15.406Z,76.24
2023-02-18T03:11:01.030Z,76.36
2023-02-18T03:14:06.529Z,76.37
2023-02-18T03:17:02.933Z,76.49
2023-02-18T03:19:36.484Z,76.43
2023-02-18T03:22:10.246Z,76.34
2023-02-18T03:24:43.878Z,76.35
2023-02-18T03:27:26.338Z,76.25
2023-02-18T03:30:12.693Z,76.38
2023-02-18T03:32:45.074Z,75.85
2023-02-18T03:35:18.358Z,75.46
2023-02-18T03:37:55.486Z,75.04
2023-02-18T03:40:28.353Z,74.83
2023-02-18T03:43:01.149Z,74.84
2023-02-18T03:45:37.437Z,74.48
2023-02-18T03:48:09.029Z,74.44
2023-02-18T03:50:40.124Z,74.53
2023-02-18T03:53:13.440Z,74.63
2023-02-18T03:55:43.910Z,74.71
2023-02-18T03:58:14.415Z,74.47
2023-02-18T04:00:44.764Z,74.50
2023-02-18T04:03:16.878Z,74.74
2023-02-18T04:05:48.111Z,74.74
2023-02-18T04:08:18.890Z,74.36
2023-02-18T04:10:50.690Z,74.52
2023-02-18T04:13:23.515Z,74.66
2023-02-18T04:15:54.506Z,74.23
2023-02-18T04:18:25.149Z,74.38
2023-02-18T04:20:57.563Z,74.10
2023-02-18T04:23:30.331Z,74.46
2023-02-18T04:26:00.882Z,74.62
2023-02-18T04:28:31.450Z,74.62
2023-02-18T04:31:02.292Z,74.81
2023-02-18T04:33:32.975Z,75.14
2023-02-18T04:36:03.851Z,75.18
2023-02-18T04:38:37.249Z,75.01
2023-02-18T04:41:08.340Z,75.01
2023-02-18T04:43:40.971Z,74.99
2023-02-18T04:46:11.865Z,75.00
2023-02-18T04:48:42.808Z,75.11
2023-02-18T04:51:13.801Z,75.12
2023-02-18T04:53:44.377Z,75.18
2023-02-18T04:56:16.596Z,74.87
2023-02-18T04:58:47.882Z,74.96
2023-02-18T05:01:18.882Z,74.94
2023-02-18T05:03:49.464Z,74.95
2023-02-18T05:06:20.334Z,75.14
2023-02-18T05:08:50.887Z,75.29
2023-02-18T05:11:21.521Z,74.87
2023-02-18T05:13:52.235Z,74.81
2023-02-18T05:16:22.974Z,74.93
2023-02-18T05:18:53.441Z,74.56
2023-02-18T05:21:26.380Z,74.74
2023-02-18T05:23:58.289Z,74.09
2023-02-18T05:26:28.902Z,74.03
2023-02-18T05:28:59.372Z,73.64
2023-02-18T05:31:30.406Z,73.44
2023-02-18T05:34:01.231Z,73.34
2023-02-18T05:36:33.175Z,73.17
2023-02-18T05:39:03.929Z,73.10
2023-02-18T05:41:34.516Z,72.89
2023-02-18T05:44:23.325Z,72.82
2023-02-18T05:46:53.932Z,72.67
2023-02-18T05:49:27.224Z,72.60
2023-02-18T05:51:57.393Z,72.19
2023-02-18T05:54:28.603Z,72.13
2023-02-18T05:56:59.106Z,72.10
2023-02-18T05:59:30.348Z,71.86
2023-02-18T06:02:01.505Z,71.69
2023-02-18T06:04:32.711Z,71.87
2023-02-18T06:07:05.728Z,71.39
2023-02-18T06:09:35.334Z,71.54
2023-02-18T06:12:06.573Z,71.40
2023-02-18T06:14:40.865Z,71.20
2023-02-18T06:17:14.022Z,71.72
2023-02-18T06:19:44.966Z,71.21
2023-02-18T06:22:15.959Z,70.87
2023-02-18T06:24:48.219Z,71.00
2023-02-18T06:27:18.817Z,70.75
2023-02-18T06:29:49.475Z,71.19
2023-02-18T06:32:20.312Z,70.82
2023-02-18T06:34:50.993Z,70.75
2023-02-18T06:37:21.580Z,70.62
2023-02-18T06:39:53.762Z,70.97
2023-02-18T06:42:24.493Z,70.64
2023-02-18T06:44:54.946Z,70.58
2023-02-18T06:47:25.706Z,70.91
2023-02-18T06:49:56.332Z,70.89
2023-02-18T06:52:26.995Z,70.52
2023-02-18T06:54:59.056Z,70.64
2023-02-18T06:57:31.171Z,70.70
2023-02-18T07:00:01.913Z,70.67
2023-02-18T07:02:32.291Z,70.56
2023-02-18T07:05:05.988Z,70.76
2023-02-18T07:07:36.518Z,70.35
2023-02-18T07:10:08.294Z,70.38
2023-02-18T07:12:38.706Z,70.64
2023-02-18T07:15:09.973Z,70.35
2023-02-18T07:17:42.022Z,70.40
2023-02-18T07:20:12.689Z,70.45
2023-02-18T07:22:43.141Z,70.51
2023-02-18T07:25:13.949Z,70.51
2023-02-18T07:27:44.471Z,70.18
2023-02-18T07:30:15.926Z,70.53
2023-02-18T07:32:46.543Z,70.26
2023-02-18T07:35:18.248Z,71.02
2023-02-18T07:37:49.806Z,71.26
2023-02-18T07:40:23.106Z,71.57
2023-02-18T07:42:53.879Z,71.66
2023-02-18T07:45:24.388Z,71.81
2023-02-18T07:47:55.682Z,71.32
2023-02-18T07:50:28.705Z,70.98
2023-02-18T07:52:59.481Z,71.36
2023-02-18T07:55:33.630Z,72.52
2023-02-18T07:58:04.233Z,73.43
2023-02-18T08:00:36.332Z,74.60
2023-02-18T08:03:06.902Z,75.32
2023-02-18T08:05:37.901Z,75.84
2023-02-18T08:08:09.096Z,74.88
2023-02-18T08:10:41.145Z,75.12
2023-02-18T08:13:11.864Z,75.17
2023-02-18T08:15:43.035Z,75.47
2023-02-18T08:18:20.600Z,76.04
2023-02-18T08:20:53.201Z,76.26
2023-02-18T08:23:25.898Z,76.21
2023-02-18T08:25:56.489Z,76.50
2023-02-18T08:28:28.064Z,76.79
2023-02-18T08:30:59.087Z,77.46
2023-02-18T08:33:30.270Z,78.18
2023-02-18T08:36:00.917Z,79.30
2023-02-18T08:38:31.659Z,79.58
2023-02-18T08:41:05.433Z,78.79
2023-02-18T08:43:37.826Z,79.79
2023-02-18T08:46:08.330Z,79.04
2023-02-18T08:48:40.817Z,79.75
2023-02-18T08:51:20.626Z,80.26
2023-02-18T08:53:51.996Z,80.31
2023-02-18T08:56:22.415Z,80.37
2023-02-18T08:58:52.947Z,80.55
2023-02-18T09:01:23.558Z,80.37
2023-02-18T09:03:56.034Z,81.21
2023-02-18T09:06:27.766Z,81.36
2023-02-18T09:08:59.260Z,81.03
2023-02-18T09:11:30.074Z,81.09
2023-02-18T09:14:00.737Z,81.87
2023-02-18T09:16:31.498Z,81.67
2023-02-18T09:19:02.099Z,82.23
2023-02-18T09:21:32.517Z,81.69
2023-02-18T09:24:04.611Z,81.14
2023-02-18T09:26:35.353Z,80.86
2023-02-18T09:29:05.934Z,81.59
2023-02-18T09:31:39.472Z,81.51
2023-02-18T09:34:09.988Z,81.32
2023-02-18T09:36:40.913Z,82.25
2023-02-18T09:39:16.104Z,82.61
2023-02-18T09:42:08.113Z,82.59
2023-02-18T09:44:50.673Z,83.33
2023-02-18T09:47:24.376Z,82.51
2023-02-18T09:49:58.181Z,82.87
2023-02-18T09:52:36.627Z,82.47
2023-02-18T09:55:19.623Z,82.69
2023-02-18T09:57:54.857Z,83.08
2023-02-18T10:00:38.184Z,82.75
2023-02-18T10:03:18.428Z,81.76
2023-02-18T10:06:04.020Z,82.25
2023-02-18T10:08:41.218Z,83.41
2023-02-18T10:11:17.859Z,83.76
2023-02-18T10:13:48.463Z,83.87
2023-02-18T10:16:23.742Z,84.57
2023-02-18T10:19:00.195Z,84.42
2023-02-18T10:21:34.897Z,83.83
2023-02-18T10:24:08.439Z,84.59
2023-02-18T10:26:40.569Z,84.92
2023-02-18T10:29:22.167Z,85.09
2023-02-18T10:32:13.681Z,85.09
2023-02-18T10:34:53.434Z,84.66
2023-02-18T10:37:39.001Z,84.80
2023-02-18T10:40:21.666Z,84.04
2023-02-18T10:43:02.997Z,84.60
2023-02-18T10:45:52.924Z,84.50
2023-02-18T10:48:44.827Z,84.03
2023-02-18T10:51:23.112Z,84.59
2023-02-18T10:53:55.041Z,85.28
2023-02-18T10:56:40.650Z,85.32
2023-02-18T10:59:15.777Z,85.00
2023-02-18T11:01:48.640Z,85.11
2023-02-18T11:04:21.951Z,84.81
2023-02-18T11:06:58.465Z,85.57
2023-02-18T11:09:37.119Z,86.29
2023-02-18T11:12:28.571Z,86.02
2023-02-18T11:15:18.257Z,85.81
2023-02-18T11:17:51.823Z,85.25
2023-02-18T11:20:40.655Z,84.97
2023-02-18T11:23:21.802Z,85.16
2023-02-18T11:26:04.643Z,85.02
2023-02-18T11:28:49.413Z,85.42
2023-02-18T11:31:25.856Z,85.84
2023-02-18T11:33:59.369Z,86.61
2023-02-18T11:36:39.354Z,87.33
2023-02-18T11:39:24.735Z,86.97
2023-02-18T11:42:07.575Z,87.29
2023-02-18T11:44:41.184Z,87.13
2023-02-18T11:47:21.416Z,87.20
2023-02-18T11:50:04.015Z,86.43
2023-02-18T11:52:37.397Z,86.75
2023-02-18T11:55:11.182Z,87.17
2023-02-18T11:57:47.678Z,87.74
2023-02-18T12:00:26.848Z,87.94
2023-02-18T12:03:00.636Z,87.95
2023-02-18T12:05:32.660Z,87.86
2023-02-18T12:08:18.352Z,87.88
2023-02-18T12:10:55.308Z,87.89
2023-02-18T12:13:28.712Z,87.91
2023-02-18T12:16:23.748Z,88.01
2023-02-18T12:19:31.150Z,88.40
2023-02-18T12:22:17.353Z,88.65
2023-02-18T12:24:56.967Z,88.89
2023-02-18T12:27:33.736Z,89.13
2023-02-18T12:30:28.495Z,89.18
2023-02-18T12:33:18.627Z,89.38
2023-02-18T12:36:04.300Z,89.67
2023-02-18T12:38:59.023Z,89.86
2023-02-18T12:41:42.313Z,89.87
2023-02-18T12:44:22.079Z,89.80
2023-02-18T12:47:32.453Z,89.82
2023-02-18T12:50:29.002Z,89.81
2023-02-18T12:53:26.496Z,89.69
2023-02-18T12:56:15.281Z,89.65
2023-02-18T12:59:09.965Z,89.49
2023-02-18T13:02:12.698Z,89.41
2023-02-18T13:05:01.708Z,89.32
2023-02-18T13:07:54.405Z,89.03
2023-02-18T13:10:50.024Z,88.83
2023-02-18T13:13:33.207Z,88.88
2023-02-18T13:16:09.747Z,88.94
2023-02-18T13:18:43.530Z,89.09
2023-02-18T13:21:18.422Z,89.18
2023-02-18T13:23:54.551Z,89.34
2023-02-18T13:26:25.940Z,89.57
2023-02-18T13:29:16.187Z,89.64
2023-02-18T13:32:19.323Z,89.71
2023-02-18T13:34:57.958Z,89.82
2023-02-18T13:37:49.497Z,89.87
2023-02-18T13:40:27.591Z,90.05
2023-02-18T13:43:10.093Z,90.11
2023-02-18T13:45:41.054Z,90.07
2023-02-18T13:48:31.871Z,90.01
2023-02-18T13:51:05.281Z,89.91
2023-02-18T13:53:42.839Z,90.00
2023-02-18T13:56:29.064Z,90.07
2023-02-18T13:59:14.128Z,90.07
2023-02-18T14:01:47.081Z,90.07
2023-02-18T14:04:40.998Z,90.10
2023-02-18T14:07:41.883Z,89.90
2023-02-18T14:10:25.415Z,90.05
2023-02-18T14:12:59.049Z,89.96
2023-02-18T14:15:33.501Z,89.94
2023-02-18T14:18:28.082Z,89.99
2023-02-18T14:21:01.676Z,89.86
2023-02-18T14:23:41.102Z,89.66
2023-02-18T14:26:14.948Z,89.63
2023-02-18T14:28:58.757Z,89.45
2023-02-18T14:31:44.451Z,89.39
2023-02-18T14:34:38.811Z,89.34
2023-02-18T14:37:21.069Z,89.28
2023-02-18T14:40:19.998Z,89.30
2023-02-18T14:43:08.892Z,89.09
2023-02-18T14:46:02.945Z,88.99
2023-02-18T14:48:57.426Z,89.17
2023-02-18T14:51:31.017Z,89.10
2023-02-18T14:54:07.889Z,89.14
2023-02-18T14:56:42.985Z,89.17
2023-02-18T14:59:15.219Z,89.18
2023-02-18T15:01:48.348Z,89.22
2023-02-18T15:04:19.319Z,89.46
2023-02-18T15:07:01.688Z,89.66
2023-02-18T15:09:33.501Z,89.55
2023-02-18T15:12:09.505Z,89.28
2023-02-18T15:14:44.800Z,89.22
2023-02-18T15:17:24.619Z,89.00
2023-02-18T15:19:58.213Z,89.02
2023-02-18T15:22:34.117Z,88.99
2023-02-18T15:25:05.399Z,88.97
2023-02-18T15:27:39.012Z,88.78
2023-02-18T15:30:24.366Z,88.53
2023-02-18T15:33:00.723Z,88.16
2023-02-18T15:35:33.885Z,88.04
2023-02-18T15:38:04.844Z,87.76
2023-02-18T15:40:40.704Z,87.72
2023-02-18T15:43:17.141Z,87.15
2023-02-18T15:45:50.419Z,87.01
2023-02-18T15:48:35.841Z,86.65
2023-02-18T15:51:17.746Z,87.08
2023-02-18T15:53:50.680Z,87.48
2023-02-18T15:56:33.344Z,87.71
2023-02-18T15:59:18.775Z,87.48
2023-02-18T16:01:59.353Z,87.22
2023-02-18T16:04:32.585Z,87.39
2023-02-18T16:07:06.214Z,87.37
2023-02-18T16:09:39.782Z,86.74
2023-02-18T16:12:19.356Z,86.95
2023-02-18T16:14:51.916Z,87.64
2023-02-18T16:17:26.212Z,88.08
2023-02-18T16:20:19.099Z,88.74
2023-02-18T16:22:55.233Z,89.17
2023-02-18T16:25:28.845Z,89.59
2023-02-18T16:28:07.115Z,89.68
2023-02-18T16:30:38.495Z,89.83
2023-02-18T16:33:09.932Z,89.71
2023-02-18T16:35:49.438Z,89.54
2023-02-18T16:38:21.569Z,89.36
2023-02-18T16:40:54.216Z,89.34
2023-02-18T16:43:29.907Z,88.86
2023-02-18T16:46:09.644Z,88.74
2023-02-18T16:48:42.065Z,89.15
2023-02-18T16:51:15.752Z,89.51
2023-02-18T16:53:50.051Z,89.76
2023-02-18T16:56:25.667Z,89.89
2023-02-18T16:58:55.881Z,89.70
2023-02-18T17:01:32.660Z,89.64
2023-02-18T17:04:04.082Z,89.74
2023-02-18T17:06:34.954Z,89.68
2023-02-18T17:09:17.718Z,89.49
2023-02-18T17:11:56.137Z,89.51
2023-02-18T17:14:27.853Z,89.48
2023-02-18T17:16:59.240Z,89.37
2023-02-18T17:19:30.348Z,89.29
2023-02-18T17:22:04.040Z,89.25
2023-02-18T17:24:36.062Z,89.39
2023-02-18T17:27:09.427Z,89.63
2023-02-18T17:29:40.083Z,89.39
2023-02-18T17:32:12.253Z,89.44
2023-02-18T17:34:42.922Z,89.52
2023-02-18T17:37:14.204Z,89.44
2023-02-18T17:39:44.906Z,89.20
2023-02-18T17:42:15.496Z,89.03
2023-02-18T17:44:46.239Z,88.92
2023-02-18T17:47:19.497Z,88.70
2023-02-18T17:49:50.279Z,88.72
2023-02-18T17:52:31.280Z,88.64
2023-02-18T17:55:06.878Z,88.28
2023-02-18T17:57:38.166Z,88.50
2023-02-18T18:00:12.206Z,88.45
2023-02-18T18:02:44.477Z,88.46
2023-02-18T18:05:21.389Z,88.59
2023-02-18T18:07:55.165Z,88.46
2023-02-18T18:10:30.132Z,88.02
2023-02-18T18:13:03.696Z,88.22
2023-02-18T18:15:43.170Z,88.08
2023-02-18T18:18:15.776Z,88.16
2023-02-18T18:20:49.523Z,88.12
2023-02-18T18:23:22.115Z,88.13
2023-02-18T18:25:56.423Z,87.94
2023-02-18T18:28:28.211Z,87.58
2023-02-18T18:31:01.549Z,87.80
2023-02-18T18:33:34.914Z,87.80
2023-02-18T18:36:07.009Z,87.84
2023-02-18T18:38:39.106Z,87.83
2023-02-18T18:41:20.777Z,87.81
2023-02-18T18:43:52.917Z,87.92
2023-02-18T18:46:24.042Z,87.70
2023-02-18T18:48:55.842Z,87.90
2023-02-18T18:51:34.690Z,87.72
2023-02-18T18:54:05.294Z,87.12
2023-02-18T18:56:38.543Z,86.97
2023-02-18T18:59:10.206Z,87.14
2023-02-18T19:01:40.728Z,87.13
2023-02-18T19:04:11.180Z,87.49
2023-02-18T19:06:41.845Z,87.27
2023-02-18T19:09:12.394Z,87.24
2023-02-18T19:11:43.077Z,87.13
2023-02-18T19:14:14.814Z,86.94
2023-02-18T19:16:45.446Z,86.94
2023-02-18T19:19:16.385Z,86.57
2023-02-18T19:21:48.987Z,86.20
2023-02-18T19:24:19.527Z,86.12
2023-02-18T19:26:51.784Z,86.11
2023-02-18T19:29:23.511Z,86.17
2023-02-18T19:31:54.467Z,86.03
2023-02-18T19:34:27.707Z,85.82
2023-02-18T19:37:02.732Z,86.09
2023-02-18T19:39:34.835Z,85.96
2023-02-18T19:42:05.369Z,86.17
2023-02-18T19:44:38.279Z,86.01
2023-02-18T19:47:11.273Z,86.07
2023-02-18T19:49:42.515Z,86.26
2023-02-18T19:52:15.925Z,86.27
2023-02-18T19:54:47.130Z,86.55
2023-02-18T19:57:17.991Z,86.56
2023-02-18T19:59:48.834Z,86.60
2023-02-18T20:02:24.250Z,86.69
2023-02-18T20:04:56.732Z,86.97
2023-02-18T20:07:28.706Z,86.62
2023-02-18T20:10:00.729Z,86.73
2023-02-18T20:12:31.901Z,86.70
2023-02-18T20:15:03.934Z,86.87
2023-02-18T20:17:35.927Z,86.86
2023-02-18T20:20:09.679Z,86.57
2023-02-18T20:22:43.690Z,86.24
2023-02-18T20:25:14.288Z,86.21
2023-02-18T20:27:59.726Z,86.37
2023-02-18T20:30:19.152Z,86.41
2023-02-18T20:32:49.592Z,86.59
2023-02-18T20:35:21.528Z,86.85
2023-02-18T20:37:55.031Z,87.20
2023-02-18T20:40:27.978Z,87.35
2023-02-18T20:42:58.434Z,87.44
2023-02-18T20:45:29.893Z,87.67
2023-02-18T20:48:02.949Z,87.85
2023-02-18T20:50:34.939Z,88.05
2023-02-18T20:53:05.460Z,88.14
2023-02-18T20:55:36.701Z,88.36
2023-02-18T20:58:07.101Z,88.35
2023-02-18T21:00:38.821Z,88.37
2023-02-18T21:03:12.574Z,88.14
2023-02-18T21:05:43.985Z,88.24
2023-02-18T21:08:16.055Z,88.39
2023-02-18T21:10:46.580Z,88.37
2023-02-18T21:13:17.169Z,88.47
2023-02-18T21:15:48.137Z,88.62
2023-02-18T21:18:20.503Z,88.46
2023-02-18T21:20:51.069Z,88.39
2023-02-18T21:23:24.407Z,88.47
2023-02-18T21:25:55.079Z,88.27
2023-02-18T21:28:26.998Z,88.23
2023-02-18T21:30:57.571Z,88.06
2023-02-18T21:33:28.673Z,88.09
2023-02-18T21:36:03.136Z,88.23
2023-02-18T21:38:35.101Z,88.34
2023-02-18T21:41:10.020Z,88.07
2023-02-18T21:43:40.833Z,87.79
2023-02-18T21:46:20.607Z,87.61
2023-02-18T21:49:05.572Z,87.15
2023-02-18T21:51:57.216Z,87.37
2023-02-18T21:54:46.138Z,87.51
2023-02-18T21:57:20.862Z,87.13
2023-02-18T21:59:52.004Z,86.93
2023-02-18T22:02:25.479Z,87.14
2023-02-18T22:04:56.544Z,86.94
2023-02-18T22:07:28.825Z,86.94
2023-02-18T22:09:59.313Z,87.18
2023-02-18T22:12:32.371Z,86.50
2023-02-18T22:15:06.374Z,86.22
2023-02-18T22:17:36.513Z,86.31
2023-02-18T22:20:09.145Z,86.42
2023-02-18T22:22:39.798Z,86.55
2023-02-18T22:25:11.409Z,86.44
2023-02-18T22:27:43.105Z,85.75
2023-02-18T22:30:14.060Z,86.02
2023-02-18T22:32:44.493Z,86.10
2023-02-18T22:35:16.665Z,86.27
2023-02-18T22:37:47.123Z,86.58
2023-02-18T22:40:26.101Z,86.43
2023-02-18T22:42:56.609Z,86.66
2023-02-18T22:45:28.322Z,86.89
2023-02-18T22:48:01.099Z,87.16
2023-02-18T22:50:37.274Z,87.20
2023-02-18T22:53:09.396Z,87.14
2023-02-18T22:55:39.916Z,86.80
2023-02-18T22:58:11.422Z,86.11
2023-02-18T23:00:43.838Z,85.85
2023-02-18T23:03:17.282Z,85.66
2023-02-18T23:05:47.672Z,85.79
2023-02-18T23:08:18.392Z,86.03
2023-02-18T23:10:48.895Z,86.06
2023-02-18T23:13:19.333Z,85.83
2023-02-18T23:15:58.833Z,85.60
2023-02-18T23:18:32.720Z,85.79
2023-02-18T23:21:23.309Z,86.28
2023-02-18T23:23:56.402Z,86.17
2023-02-18T23:26:28.218Z,85.56
2023-02-18T23:28:58.924Z,85.23
2023-02-18T23:31:29.577Z,85.06
2023-02-18T23:34:02.047Z,84.70
2023-02-18T23:36:35.356Z,85.00
2023-02-18T23:39:12.399Z,85.42
2023-02-18T23:41:45.472Z,85.61
2023-02-18T23:44:18.673Z,85.76
2023-02-18T23:46:49.165Z,85.51
2023-02-18T23:49:24.918Z,85.82
2023-02-18T23:51:59.103Z,85.60
2023-02-18T23:54:31.740Z,85.32
2023-02-18T23:57:02.929Z,85.27
2023-02-18T23:59:36.413Z,85.81
